Time;durP1;ratioP1;P1;durP2;ratioP2;P2;SDS_P1;SDS_P2;PMS_P1;PMS_P2;Temp;Humidity;BMP_temperature;BMP_pressure;BME280_temperature;BME280_humidity;BME280_pressure;Samples;Min_cycle;Max_cycle;Signal;HPM_P1;HPM_P2
2021/01/11 00:00:25;;;;;;;15.88;11.55;;;3.50;68.30;;;;;;5070867;28;20206;-50
2021/01/11 00:02:52;;;;;;;16.85;11.80;;;3.40;68.20;;;;;;5089004;28;20199;-51
2021/01/11 00:05:19;;;;;;;15.90;12.27;;;3.40;69.00;;;;;;5092088;28;20273;-50
2021/01/11 00:07:46;;;;;;;17.08;11.50;;;3.40;68.20;;;;;;5079197;28;20220;-50
2021/01/11 00:10:13;;;;;;;16.95;12.93;;;3.30;68.80;;;;;;5090827;28;20213;-51
2021/01/11 00:12:40;;;;;;;16.17;11.70;;;3.30;69.00;;;;;;5090855;28;20238;-50
2021/01/11 00:15:08;;;;;;;13.63;11.57;;;3.30;68.90;;;;;;5090900;28;20224;-49
2021/01/11 00:17:35;;;;;;;15.48;11.43;;;3.30;68.90;;;;;;5090579;28;20602;-51
2021/01/11 00:20:03;;;;;;;20.38;12.30;;;3.30;68.90;;;;;;5079841;28;20260;-50
2021/01/11 00:22:30;;;;;;;16.20;11.43;;;3.20;68.90;;;;;;5070706;28;20236;-50
2021/01/11 00:24:56;;;;;;;15.38;12.27;;;3.20;69.00;;;;;;5072033;28;20214;-51
2021/01/11 00:27:23;;;;;;;14.32;12.23;;;3.20;69.10;;;;;;5071808;28;20234;-50
2021/01/11 00:29:50;;;;;;;14.38;11.10;;;3.10;69.20;;;;;;5081755;28;20198;-51
2021/01/11 00:32:17;;;;;;;17.08;13.00;;;3.10;69.20;;;;;;5070749;28;20218;-52
2021/01/11 00:34:44;;;;;;;12.93;10.65;;;3.10;69.20;;;;;;5084937;28;20282;-50
2021/01/11 00:37:11;;;;;;;16.95;11.38;;;3.10;69.50;;;;;;5089898;28;20224;-51
2021/01/11 00:39:38;;;;;;;16.00;12.75;;;3.10;69.70;;;;;;5090718;28;20205;-51
2021/01/11 00:42:05;;;;;;;14.88;11.13;;;3.10;69.90;;;;;;5090791;28;20196;-51
2021/01/11 00:44:32;;;;;;;16.65;11.82;;;3.10;70.40;;;;;;5086988;28;20251;-50
2021/01/11 00:46:59;;;;;;;12.80;10.40;;;3.10;70.70;;;;;;5070015;28;20267;-50
2021/01/11 00:49:26;;;;;;;15.55;11.65;;;3.10;70.10;;;;;;5070355;28;20235;-50
2021/01/11 00:51:53;;;;;;;13.70;11.85;;;3.10;70.10;;;;;;5075718;28;20228;-50
2021/01/11 00:54:20;;;;;;;15.00;12.15;;;3.10;70.00;;;;;;5085635;28;20245;-49
2021/01/11 00:56:47;;;;;;;15.05;13.00;;;3.20;69.70;;;;;;5091286;28;20207;-50
2021/01/11 00:59:13;;;;;;;15.27;11.88;;;3.30;69.70;;;;;;5090478;28;20281;-49
2021/01/11 01:01:47;;;;;;;12.60;10.55;;;3.30;69.50;;;;;;5090677;28;20205;-51
2021/01/11 01:04:14;;;;;;;13.93;11.52;;;3.20;69.90;;;;;;5087688;28;20241;-52
2021/01/11 01:06:41;;;;;;;15.45;9.95;;;3.20;71.00;;;;;;5090015;28;20493;-50
2021/01/11 01:09:08;;;;;;;15.40;10.85;;;3.20;71.20;;;;;;5089655;28;20741;-50
2021/01/11 01:11:37;;;;;;;14.55;11.75;;;3.20;70.90;;;;;;5090163;28;20571;-50
2021/01/11 01:14:04;;;;;;;13.82;11.30;;;3.20;71.10;;;;;;5088421;28;20260;-51
2021/01/11 01:16:31;;;;;;;14.27;11.88;;;3.20;69.60;;;;;;5069134;28;20673;-50
2021/01/11 01:18:57;;;;;;;13.48;10.80;;;3.20;69.10;;;;;;5070006;28;20245;-50
2021/01/11 01:21:24;;;;;;;14.57;10.13;;;3.10;69.10;;;;;;5089491;28;20206;-49
2021/01/11 01:23:51;;;;;;;12.77;10.80;;;3.10;69.20;;;;;;5093043;28;20204;-49
2021/01/11 01:26:18;;;;;;;11.32;9.93;;;3.10;69.30;;;;;;5094020;28;20240;-49
2021/01/11 01:28:45;;;;;;;11.88;8.18;;;3.00;69.30;;;;;;5075418;28;20241;-50
2021/01/11 01:31:12;;;;;;;12.20;9.82;;;3.00;70.00;;;;;;5073612;28;20259;-50
2021/01/11 01:33:39;;;;;;;16.88;12.05;;;3.00;71.30;;;;;;5081268;28;20294;-49
2021/01/11 01:36:06;;;;;;;15.48;11.00;;;3.00;72.50;;;;;;5093619;28;20245;-49
2021/01/11 01:38:33;;;;;;;14.82;10.13;;;3.10;73.80;;;;;;5093170;28;20282;-50
2021/01/11 01:41:00;;;;;;;14.40;10.80;;;3.10;73.60;;;;;;5093642;28;20300;-50
2021/01/11 01:43:27;;;;;;;14.52;11.07;;;3.10;72.40;;;;;;5093496;28;20242;-50
2021/01/11 01:45:54;;;;;;;10.02;8.80;;;3.00;71.50;;;;;;5091591;28;20682;-50
2021/01/11 01:48:21;;;;;;;13.65;11.38;;;3.10;71.70;;;;;;5093149;28;20690;-49
2021/01/11 01:50:48;;;;;;;13.65;11.05;;;3.00;72.60;;;;;;5093422;28;20223;-49
2021/01/11 01:53:14;;;;;;;11.32;10.13;;;3.10;71.70;;;;;;5092733;28;20244;-48
2021/01/11 01:55:41;;;;;;;13.25;11.20;;;3.10;70.70;;;;;;5093242;28;20228;-49
2021/01/11 01:58:10;;;;;;;16.55;11.70;;;3.00;70.00;;;;;;5081575;28;20233;-50
2021/01/11 02:00:37;;;;;;;11.20;9.32;;;2.90;70.20;;;;;;5074725;28;20233;-51
2021/01/11 02:03:05;;;;;;;14.57;10.45;;;2.90;70.60;;;;;;5093281;28;20688;-50
2021/01/11 02:05:32;;;;;;;11.40;10.25;;;2.90;70.40;;;;;;5092884;28;20201;-50
2021/01/11 02:08:05;;;;;;;15.38;12.18;;;2.90;70.50;;;;;;5090850;28;20241;-49
2021/01/11 02:10:40;;;;;;;10.98;9.15;;;2.90;71.90;;;;;;5092222;28;20755;-50
2021/01/11 02:13:15;;;;;;;11.60;9.07;;;2.90;72.30;;;;;;5091505;28;20208;-48
2021/01/11 02:15:47;;;;;;;12.35;11.02;;;2.90;71.90;;;;;;5091867;28;20557;-48
2021/01/11 02:18:15;;;;;;;12.43;9.30;;;2.90;71.60;;;;;;5072436;28;20245;-48
2021/01/11 02:21:19;;;;;;;11.40;9.43;;;2.80;71.40;;;;;;5071502;28;20250;-48
2021/01/11 02:24:25;;;;;;;10.82;9.10;;;2.70;71.70;;;;;;5066225;28;20228;-48
2021/01/11 02:26:57;;;;;;;12.55;10.30;;;2.80;72.80;;;;;;5071509;28;20284;-49
2021/01/11 02:29:31;;;;;;;16.65;11.02;;;2.90;73.00;;;;;;5076835;28;20758;-49
2021/01/11 02:31:59;;;;;;;11.30;9.43;;;2.80;73.10;;;;;;5091675;28;20265;-49
2021/01/11 02:34:26;;;;;;;11.02;9.23;;;2.80;72.00;;;;;;5089736;28;20218;-49
2021/01/11 02:36:53;;;;;;;13.10;9.68;;;2.80;71.60;;;;;;5071051;28;20214;-49
2021/01/11 02:39:20;;;;;;;12.63;9.90;;;2.70;71.30;;;;;;5071359;28;20212;-48
2021/01/11 02:41:47;;;;;;;10.63;8.20;;;2.70;71.40;;;;;;5071224;28;20240;-48
2021/01/11 02:44:13;;;;;;;13.00;10.50;;;2.70;71.40;;;;;;5070636;28;20201;-49
2021/01/11 02:46:40;;;;;;;12.75;10.02;;;2.80;71.60;;;;;;5072086;28;20206;-49
2021/01/11 02:49:12;;;;;;;10.82;9.25;;;2.70;71.40;;;;;;5071388;28;20221;-49
2021/01/11 02:51:42;;;;;;;13.60;10.35;;;2.70;71.50;;;;;;5068754;28;20202;-49
2021/01/11 02:54:12;;;;;;;15.88;12.02;;;2.70;72.50;;;;;;5074542;28;20236;-48
2021/01/11 02:56:42;;;;;;;14.52;10.32;;;2.70;72.20;;;;;;5070813;28;20246;-49
2021/01/11 02:59:15;;;;;;;13.95;11.35;;;2.60;72.90;;;;;;5089142;28;20221;-50
2021/01/11 03:01:48;;;;;;;12.70;10.93;;;2.60;73.40;;;;;;5092326;28;20699;-50
2021/01/11 03:04:21;;;;;;;14.35;11.00;;;2.50;74.00;;;;;;5092228;28;20235;-49
2021/01/11 03:06:57;;;;;;;16.35;11.90;;;2.50;74.90;;;;;;5090755;28;20262;-50
2021/01/11 03:09:24;;;;;;;12.30;9.95;;;2.60;75.70;;;;;;5085204;28;20194;-50
2021/01/11 03:11:50;;;;;;;12.55;9.82;;;2.60;76.10;;;;;;5070068;28;20197;-50
2021/01/11 03:14:17;;;;;;;15.90;10.55;;;2.70;76.00;;;;;;5070071;28;20236;-50
2021/01/11 03:16:44;;;;;;;16.48;10.73;;;2.70;76.20;;;;;;5070015;28;20252;-49
2021/01/11 03:19:11;;;;;;;12.10;9.90;;;2.70;75.90;;;;;;5070012;28;20222;-50
2021/01/11 03:21:40;;;;;;;11.20;9.90;;;2.60;75.80;;;;;;5070428;28;20262;-49
2021/01/11 03:24:07;;;;;;;12.65;10.23;;;2.50;76.10;;;;;;5070224;28;20677;-50
2021/01/11 03:26:33;;;;;;;13.80;11.75;;;2.50;76.90;;;;;;5079446;28;20192;-50
2021/01/11 03:29:00;;;;;;;11.85;10.15;;;2.50;77.50;;;;;;5070306;28;20233;-51
2021/01/11 03:31:27;;;;;;;11.38;9.82;;;2.50;77.70;;;;;;5070610;28;20198;-50
2021/01/11 03:33:54;;;;;;;10.98;9.25;;;2.60;77.70;;;;;;5069630;28;20233;-50
2021/01/11 03:36:20;;;;;;;13.45;9.27;;;2.60;77.50;;;;;;5070327;28;20268;-50
2021/01/11 03:38:48;;;;;;;10.77;9.50;;;2.60;77.60;;;;;;5070346;28;20263;-50
2021/01/11 03:41:15;;;;;;;12.43;11.05;;;2.60;77.50;;;;;;5087977;28;20261;-50
2021/01/11 03:43:42;;;;;;;13.38;9.43;;;2.60;77.50;;;;;;5074233;28;20515;-50
2021/01/11 03:46:09;;;;;;;10.18;9.18;;;2.60;77.70;;;;;;5089899;28;20192;-50
2021/01/11 03:48:36;;;;;;;10.50;8.60;;;2.60;77.50;;;;;;5090147;28;20661;-51
2021/01/11 03:51:03;;;;;;;11.35;9.18;;;2.60;77.40;;;;;;5070208;28;20213;-49
2021/01/11 03:53:30;;;;;;;12.40;9.80;;;2.60;77.30;;;;;;5070034;28;20241;-51
2021/01/11 03:55:57;;;;;;;10.77;9.52;;;2.70;77.30;;;;;;5069824;28;20257;-50
2021/01/11 03:58:24;;;;;;;12.35;9.10;;;2.60;76.80;;;;;;5069396;28;20292;-50
2021/01/11 04:00:51;;;;;;;13.00;8.88;;;2.70;77.00;;;;;;5069728;28;20270;-49
2021/01/11 04:03:18;;;;;;;11.20;9.65;;;2.60;76.30;;;;;;5070042;28;20189;-50
2021/01/11 04:05:45;;;;;;;14.32;11.30;;;2.60;76.30;;;;;;5070387;28;20208;-49
2021/01/11 04:08:14;;;;;;;12.95;10.43;;;2.60;76.60;;;;;;5070466;28;20276;-49
2021/01/11 04:10:41;;;;;;;12.73;10.70;;;2.50;76.90;;;;;;5069895;28;20192;-50
2021/01/11 04:13:09;;;;;;;14.90;11.48;;;2.40;77.30;;;;;;5069552;28;20267;-50
2021/01/11 04:15:35;;;;;;;15.60;11.85;;;2.40;77.70;;;;;;5070209;28;20214;-51
2021/01/11 04:18:02;;;;;;;13.77;11.52;;;2.40;77.90;;;;;;5069096;28;20217;-51
2021/01/11 04:20:29;;;;;;;14.60;12.38;;;2.30;77.90;;;;;;5068321;28;20676;-50
2021/01/11 04:22:56;;;;;;;16.15;12.23;;;2.20;78.30;;;;;;5064133;22;20238;-58
2021/01/11 04:25:24;;;;;;;16.25;13.05;;;2.30;78.80;;;;;;5031502;28;20198;-57
2021/01/11 04:27:51;;;;;;;15.57;11.80;;;2.30;79.20;;;;;;5031020;28;20214;-60
2021/01/11 04:30:20;;;;;;;15.35;12.65;;;2.30;79.10;;;;;;5031205;28;20662;-58
2021/01/11 04:32:46;;;;;;;13.32;11.88;;;2.30;79.10;;;;;;5031818;28;20274;-58
2021/01/11 04:35:14;;;;;;;13.50;11.20;;;2.30;79.00;;;;;;5030814;28;20253;-60
2021/01/11 04:37:42;;;;;;;14.30;10.70;;;2.20;78.90;;;;;;5031299;28;20241;-59
2021/01/11 04:40:10;;;;;;;15.98;11.73;;;2.20;79.30;;;;;;5031368;28;20307;-57
2021/01/11 04:42:45;;;;;;;16.23;11.68;;;2.20;79.30;;;;;;5031088;28;20256;-60
2021/01/11 04:45:12;;;;;;;12.15;10.88;;;2.20;79.30;;;;;;5030708;28;20255;-59
2021/01/11 04:47:40;;;;;;;13.00;11.15;;;2.20;80.00;;;;;;5030734;28;20596;-59
2021/01/11 04:50:08;;;;;;;13.45;10.80;;;2.20;79.90;;;;;;5031753;28;20228;-59
2021/01/11 04:52:35;;;;;;;14.70;11.35;;;2.10;80.10;;;;;;5030613;28;20709;-57
2021/01/11 04:55:02;;;;;;;12.32;10.35;;;2.10;80.80;;;;;;5029030;28;20218;-59
2021/01/11 04:57:32;;;;;;;16.50;13.00;;;2.10;81.40;;;;;;5034840;28;20226;-59
2021/01/11 05:00:01;;;;;;;17.90;15.00;;;2.20;81.70;;;;;;5035051;28;20213;-59
2021/01/11 05:02:28;;;;;;;15.00;10.80;;;2.20;81.80;;;;;;5034781;28;20257;-58
2021/01/11 05:04:55;;;;;;;13.48;10.05;;;2.20;81.60;;;;;;5034889;28;20230;-59
2021/01/11 05:07:23;;;;;;;15.70;12.52;;;2.20;81.60;;;;;;5034546;28;20230;-59
2021/01/11 05:09:49;;;;;;;15.00;11.80;;;2.10;81.50;;;;;;5034846;28;20258;-58
2021/01/11 05:12:16;;;;;;;16.67;13.05;;;2.10;81.90;;;;;;5034869;28;20269;-57
2021/01/11 05:14:43;;;;;;;15.73;11.38;;;2.10;82.10;;;;;;5034366;28;20338;-59
2021/01/11 05:17:10;;;;;;;14.98;11.20;;;2.10;82.00;;;;;;5033168;28;20203;-58
2021/01/11 05:19:37;;;;;;;13.35;10.65;;;2.10;83.00;;;;;;5034173;28;20210;-60
2021/01/11 05:22:09;;;;;;;14.00;10.50;;;2.10;82.40;;;;;;5034518;28;20246;-58
2021/01/11 05:24:36;;;;;;;12.90;11.55;;;2.10;82.30;;;;;;5034233;28;20694;-59
2021/01/11 05:27:06;;;;;;;15.27;13.15;;;2.20;82.30;;;;;;5033714;28;20229;-59
2021/01/11 05:29:32;;;;;;;14.82;11.02;;;2.20;82.00;;;;;;5034176;28;20230;-57
2021/01/11 05:32:00;;;;;;;14.85;11.90;;;2.20;81.80;;;;;;5034305;28;20630;-58
2021/01/11 05:34:45;;;;;;;15.55;12.32;;;2.20;81.50;;;;;;5034597;28;20245;-57
2021/01/11 05:37:27;;;;;;;18.77;13.15;;;2.20;81.50;;;;;;5034439;28;20241;-59
2021/01/11 05:40:01;;;;;;;13.85;10.43;;;2.10;81.10;;;;;;5033865;28;20241;-57
2021/01/11 05:42:28;;;;;;;17.65;12.38;;;2.00;82.00;;;;;;5034296;28;20251;-58
2021/01/11 05:45:08;;;;;;;12.98;9.90;;;2.00;82.50;;;;;;5034299;28;20629;-57
2021/01/11 05:47:34;;;;;;;12.15;10.05;;;2.00;82.60;;;;;;5034106;28;20274;-58
2021/01/11 05:50:07;;;;;;;13.30;10.60;;;2.20;82.30;;;;;;5034331;28;20240;-57
2021/01/11 05:52:35;;;;;;;12.85;10.27;;;2.20;81.60;;;;;;5033134;28;20784;-58
2021/01/11 05:55:10;;;;;;;12.55;10.60;;;2.10;81.20;;;;;;5033962;28;20278;-58
2021/01/11 05:57:37;;;;;;;12.57;9.88;;;2.10;81.30;;;;;;5032528;28;20204;-59
2021/01/11 06:00:05;;;;;;;13.10;10.13;;;2.20;81.30;;;;;;5034090;28;20210;-60
2021/01/11 06:02:32;;;;;;;11.73;8.85;;;2.10;81.00;;;;;;5033887;28;20238;-59
2021/01/11 06:04:59;;;;;;;14.27;10.70;;;2.10;81.50;;;;;;5033450;28;20226;-58
2021/01/11 06:07:26;;;;;;;12.20;9.23;;;2.00;81.50;;;;;;5033348;28;20198;-61
2021/01/11 06:09:53;;;;;;;14.65;11.73;;;2.00;81.90;;;;;;5034010;28;20233;-59
2021/01/11 06:12:21;;;;;;;14.75;10.75;;;2.00;82.00;;;;;;5033494;28;20302;-58
2021/01/11 06:14:48;;;;;;;12.27;8.90;;;2.00;82.20;;;;;;5033667;28;20276;-58
2021/01/11 06:17:14;;;;;;;14.65;10.65;;;1.90;82.10;;;;;;5033339;28;20213;-59
2021/01/11 06:19:41;;;;;;;12.23;9.38;;;1.90;82.40;;;;;;5033222;28;20232;-57
2021/01/11 06:22:09;;;;;;;14.05;9.50;;;1.80;82.60;;;;;;5028687;28;20229;-58
2021/01/11 06:24:36;;;;;;;14.20;11.23;;;1.80;82.70;;;;;;5032993;28;20241;-59
2021/01/11 06:27:10;;;;;;;14.18;10.07;;;1.80;82.80;;;;;;5034195;28;20220;-59
2021/01/11 06:29:37;;;;;;;15.77;10.15;;;1.80;82.50;;;;;;5033782;28;20217;-59
2021/01/11 06:32:17;;;;;;;13.25;10.52;;;1.80;82.80;;;;;;5032220;28;20219;-56
2021/01/11 06:34:43;;;;;;;15.10;10.02;;;1.80;82.90;;;;;;5034363;28;20579;-57
2021/01/11 06:37:16;;;;;;;13.70;9.75;;;1.80;82.90;;;;;;5034764;28;20213;-58
2021/01/11 06:39:44;;;;;;;15.35;9.93;;;1.80;82.40;;;;;;5034991;28;20568;-58
2021/01/11 06:42:12;;;;;;;13.13;10.10;;;1.80;82.30;;;;;;5033369;28;20229;-57
2021/01/11 06:44:39;;;;;;;12.38;10.35;;;1.90;82.50;;;;;;5035815;28;20201;-58
2021/01/11 06:47:09;;;;;;;12.70;9.55;;;1.90;82.30;;;;;;5034570;28;20250;-60
2021/01/11 06:49:36;;;;;;;15.32;11.23;;;2.00;82.40;;;;;;5033573;28;20201;-59
2021/01/11 06:52:06;;;;;;;15.57;11.20;;;1.90;82.20;;;;;;5032926;28;20273;-59
2021/01/11 06:54:41;;;;;;;14.70;9.93;;;2.00;82.20;;;;;;5032880;28;20705;-59
2021/01/11 06:57:09;;;;;;;13.75;9.52;;;1.90;81.70;;;;;;5033148;28;20756;-58
2021/01/11 06:59:38;;;;;;;12.40;9.38;;;1.90;82.00;;;;;;5032869;28;20248;-60
2021/01/11 07:02:21;;;;;;;16.33;10.68;;;1.90;82.10;;;;;;5032608;28;20257;-59
2021/01/11 07:04:47;;;;;;;12.30;10.80;;;1.80;82.00;;;;;;5032960;28;20228;-60
2021/01/11 07:07:21;;;;;;;13.15;10.55;;;1.80;82.40;;;;;;5032568;28;20584;-59
2021/01/11 07:09:55;;;;;;;15.40;10.57;;;1.80;82.90;;;;;;5032295;28;20224;-61
2021/01/11 07:12:22;;;;;;;12.23;10.57;;;1.80;82.30;;;;;;5032732;28;20278;-58
2021/01/11 07:14:57;;;;;;;16.38;9.82;;;1.80;82.60;;;;;;5032162;28;20216;-59
2021/01/11 07:17:42;;;;;;;11.75;9.85;;;1.70;82.60;;;;;;5031507;28;20245;-59
2021/01/11 07:20:10;;;;;;;9.70;8.13;;;1.80;82.70;;;;;;5032924;28;20253;-58
2021/01/11 07:22:38;;;;;;;13.73;11.10;;;1.70;82.40;;;;;;5032117;28;20312;-59
2021/01/11 07:25:23;;;;;;;14.40;11.65;;;1.70;82.50;;;;;;5031973;28;20201;-59
2021/01/11 07:27:54;;;;;;;15.35;11.00;;;1.80;82.50;;;;;;5031578;28;20205;-60
2021/01/11 07:30:22;;;;;;;14.98;11.02;;;1.80;82.40;;;;;;5032432;28;20238;-59
2021/01/11 07:32:49;;;;;;;12.98;9.27;;;1.80;82.50;;;;;;5031989;28;20256;-59
2021/01/11 07:35:16;;;;;;;11.07;8.98;;;1.80;82.40;;;;;;5032212;28;20243;-59
2021/01/11 07:37:43;;;;;;;13.82;12.32;;;1.70;82.10;;;;;;5031697;28;20250;-59
2021/01/11 07:40:11;;;;;;;20.15;12.73;;;1.60;82.40;;;;;;5031964;28;20228;-60
2021/01/11 07:42:44;;;;;;;16.55;10.70;;;1.50;82.80;;;;;;5032071;28;20256;-58
2021/01/11 07:45:12;;;;;;;13.93;11.95;;;1.50;83.60;;;;;;5032383;28;20217;-58
2021/01/11 07:47:40;;;;;;;15.50;11.10;;;1.60;83.90;;;;;;5031986;28;20200;-59
2021/01/11 07:50:08;;;;;;;15.50;11.40;;;1.60;84.20;;;;;;5031513;28;20248;-59
2021/01/11 07:52:35;;;;;;;12.05;10.57;;;1.60;84.20;;;;;;5031342;28;20257;-59
2021/01/11 07:55:03;;;;;;;15.43;12.20;;;1.70;84.20;;;;;;5029685;28;20715;-60
2021/01/11 07:57:30;;;;;;;14.90;11.82;;;1.70;84.10;;;;;;5031577;28;20247;-59
2021/01/11 08:00:01;;;;;;;13.77;11.93;;;1.70;83.90;;;;;;5032178;28;20242;-59
2021/01/11 08:02:28;;;;;;;17.90;12.45;;;1.80;84.00;;;;;;5032186;28;20249;-60
2021/01/11 08:04:56;;;;;;;16.60;10.45;;;1.80;83.80;;;;;;5031061;28;20197;-60
2021/01/11 08:07:30;;;;;;;17.17;11.55;;;1.80;83.50;;;;;;5031376;28;20225;-59
2021/01/11 08:09:57;;;;;;;13.38;10.65;;;1.90;83.50;;;;;;5031305;28;20549;-59
2021/01/11 08:12:25;;;;;;;16.10;11.80;;;1.90;83.30;;;;;;5030842;28;20320;-59
2021/01/11 08:14:56;;;;;;;14.50;11.63;;;1.90;83.90;;;;;;5031111;28;20242;-59
2021/01/11 08:17:23;;;;;;;14.90;12.70;;;2.00;83.20;;;;;;5031504;28;20210;-60
2021/01/11 08:19:50;;;;;;;17.30;13.63;;;2.00;83.00;;;;;;5030090;28;20258;-57
2021/01/11 08:22:18;;;;;;;15.70;12.35;;;2.00;83.00;;;;;;5031112;28;20276;-56
2021/01/11 08:24:48;;;;;;;15.25;12.93;;;2.00;82.50;;;;;;5025426;28;20201;-58
2021/01/11 08:27:19;;;;;;;15.02;11.40;;;1.90;83.10;;;;;;5031203;28;20238;-57
2021/01/11 08:29:46;;;;;;;17.90;11.45;;;1.80;85.10;;;;;;5031184;28;20748;-57
2021/01/11 08:32:13;;;;;;;14.57;12.00;;;2.10;90.60;;;;;;5030593;28;20720;-57
2021/01/11 08:34:41;;;;;;;16.40;11.10;;;2.50;88.40;;;;;;5030960;28;20237;-57
2021/01/11 08:37:21;;;;;;;17.05;12.75;;;2.90;88.00;;;;;;5031192;28;20245;-57
2021/01/11 08:39:55;;;;;;;15.82;12.45;;;3.00;83.60;;;;;;5031731;28;20702;-59
2021/01/11 08:42:21;;;;;;;13.75;12.38;;;3.00;82.20;;;;;;5030931;28;20263;-59
2021/01/11 08:44:48;;;;;;;18.80;14.20;;;3.10;80.90;;;;;;5030970;28;20203;-60
2021/01/11 08:47:15;;;;;;;18.52;13.52;;;3.20;80.30;;;;;;5031175;28;20621;-59
2021/01/11 08:49:58;;;;;;;13.50;11.82;;;3.00;78.50;;;;;;5030883;28;20239;-59
2021/01/11 08:52:31;;;;;;;14.93;12.50;;;3.00;78.70;;;;;;5031896;28;20241;-59
2021/01/11 08:55:08;;;;;;;25.45;12.70;;;2.90;78.80;;;;;;5029985;28;20659;-57
2021/01/11 08:57:35;;;;;;;17.30;12.52;;;2.80;79.10;;;;;;5030670;28;20554;-57
2021/01/11 09:00:05;;;;;;;16.50;14.00;;;2.80;79.10;;;;;;5030861;28;20277;-55
2021/01/11 09:02:32;;;;;;;13.88;11.82;;;2.90;78.90;;;;;;5030584;28;20243;-57
2021/01/11 09:05:12;;;;;;;11.48;8.95;;;2.80;79.20;;;;;;5030786;28;20612;-56
2021/01/11 09:07:40;;;;;;;15.07;11.88;;;2.70;80.90;;;;;;5009809;28;20245;-57
2021/01/11 09:10:18;;;;;;;17.70;12.95;;;2.60;81.80;;;;;;5013735;28;20221;-57
2021/01/11 09:12:45;;;;;;;13.75;12.27;;;2.60;82.60;;;;;;5010973;28;20263;-56
2021/01/11 09:15:13;;;;;;;17.25;13.00;;;2.60;82.00;;;;;;5010900;28;20302;-58
2021/01/11 09:17:40;;;;;;;15.48;13.10;;;2.70;82.10;;;;;;5013475;28;20708;-56
2021/01/11 09:20:08;;;;;;;20.20;12.75;;;2.80;82.40;;;;;;5030221;28;20251;-56
2021/01/11 09:22:36;;;;;;;14.70;12.57;;;2.90;81.90;;;;;;5029899;28;20236;-56
2021/01/11 09:25:08;;;;;;;17.50;15.10;;;2.80;82.60;;;;;;5029828;28;20231;-57
2021/01/11 09:27:35;;;;;;;17.23;14.25;;;2.90;82.50;;;;;;5029619;28;20255;-57
2021/01/11 09:30:03;;;;;;;17.05;13.32;;;3.00;82.30;;;;;;5030429;28;20748;-58
2021/01/11 09:32:30;;;;;;;15.15;12.65;;;2.90;81.80;;;;;;5029690;28;20723;-57
2021/01/11 09:34:57;;;;;;;18.08;13.32;;;3.00;82.00;;;;;;5030390;28;20238;-58
2021/01/11 09:37:24;;;;;;;13.23;10.30;;;2.90;82.80;;;;;;5029764;28;20326;-60
2021/01/11 09:39:51;;;;;;;13.13;9.95;;;2.80;82.90;;;;;;5030741;28;20233;-58
2021/01/11 09:42:19;;;;;;;21.15;14.60;;;2.70;83.20;;;;;;5033703;28;20256;-57
2021/01/11 09:44:46;;;;;;;18.52;14.15;;;2.80;83.80;;;;;;5033364;28;20215;-56
2021/01/11 09:47:14;;;;;;;12.82;9.82;;;3.00;84.10;;;;;;5033443;28;20580;-59
2021/01/11 09:49:41;;;;;;;17.40;14.63;;;3.30;83.60;;;;;;5033877;28;20243;-59
2021/01/11 09:52:08;;;;;;;16.07;12.60;;;3.40;83.00;;;;;;5033787;28;20247;-58
2021/01/11 09:54:35;;;;;;;17.85;14.77;;;3.60;81.90;;;;;;5033021;28;20680;-58
2021/01/11 09:57:01;;;;;;;20.20;14.80;;;3.80;80.30;;;;;;5033216;28;20244;-57
2021/01/11 09:59:29;;;;;;;14.47;10.70;;;4.00;79.30;;;;;;5033649;28;20663;-58
2021/01/11 10:01:56;;;;;;;16.37;14.50;;;4.00;78.00;;;;;;5033435;28;20669;-58
2021/01/11 10:04:30;;;;;;;20.37;14.70;;;3.90;77.70;;;;;;5033494;28;20622;-60
2021/01/11 10:06:57;;;;;;;17.73;13.83;;;4.10;78.40;;;;;;5032813;28;20623;-59
2021/01/11 10:09:25;;;;;;;15.47;13.40;;;4.30;77.70;;;;;;5033388;28;20638;-57
2021/01/11 10:11:54;;;;;;;19.73;14.10;;;4.40;77.20;;;;;;5032781;28;20665;-58
2021/01/11 10:14:21;;;;;;;18.07;13.70;;;4.40;77.90;;;;;;5033151;28;21201;-58
2021/01/11 10:16:50;;;;;;;16.67;14.03;;;4.30;76.90;;;;;;5032731;28;20694;-57
2021/01/11 10:19:17;;;;;;;14.67;12.80;;;4.30;76.10;;;;;;5033048;28;20916;-59
2021/01/11 10:21:44;;;;;;;17.03;13.43;;;4.50;76.60;;;;;;5032395;28;20690;-57
2021/01/11 10:24:11;;;;;;;19.80;14.53;;;4.90;75.90;;;;;;5024570;22;20730;-49
2021/01/11 10:26:41;;;;;;;19.57;13.53;;;5.40;74.90;;;;;;5011640;28;20663;-49
2021/01/11 10:29:08;;;;;;;16.63;14.93;;;5.80;71.90;;;;;;4993314;28;20772;-50
2021/01/11 10:31:35;;;;;;;16.37;14.67;;;6.30;70.00;;;;;;5011540;28;20667;-49
2021/01/11 10:34:03;;;;;;;19.57;13.40;;;6.80;68.70;;;;;;5010756;28;20713;-48
2021/01/11 10:36:36;;;;;;;20.03;15.10;;;7.20;63.30;;;;;;5011067;28;21073;-49
2021/01/11 10:39:03;;;;;;;16.10;14.27;;;7.10;61.20;;;;;;5010930;28;20634;-51
2021/01/11 10:41:30;;;;;;;16.90;15.10;;;6.90;61.80;;;;;;5011229;28;20667;-50
2021/01/11 10:43:57;;;;;;;15.80;13.90;;;6.70;61.50;;;;;;5011117;28;20731;-50
2021/01/11 10:46:24;;;;;;;17.47;14.20;;;6.60;62.70;;;;;;5016841;28;20739;-50
2021/01/11 10:48:51;;;;;;;14.30;12.80;;;6.30;62.10;;;;;;5010712;28;20667;-50
2021/01/11 10:51:21;;;;;;;16.53;14.40;;;6.20;63.40;;;;;;5013744;28;20726;-49
2021/01/11 10:53:47;;;;;;;19.03;14.80;;;6.40;63.80;;;;;;5021776;28;20684;-50
2021/01/11 10:56:14;;;;;;;15.00;13.20;;;6.60;62.70;;;;;;5013738;28;20740;-51
2021/01/11 10:58:41;;;;;;;15.73;13.93;;;6.90;60.70;;;;;;5018869;28;20921;-51
2021/01/11 11:01:08;;;;;;;18.87;15.80;;;7.30;59.90;;;;;;5023052;28;20659;-50
2021/01/11 11:03:35;;;;;;;14.13;12.40;;;7.40;59.60;;;;;;5018226;28;20696;-51
2021/01/11 11:06:02;;;;;;;13.33;11.63;;;7.30;58.40;;;;;;5022311;28;20666;-50
2021/01/11 11:08:30;;;;;;;13.53;11.20;;;7.20;58.00;;;;;;5025366;28;20668;-51
2021/01/11 11:10:57;;;;;;;15.20;13.00;;;6.90;57.70;;;;;;5018304;28;20672;-50
2021/01/11 11:13:24;;;;;;;15.73;13.57;;;6.70;58.30;;;;;;5013238;28;20718;-50
2021/01/11 11:15:50;;;;;;;14.03;12.53;;;6.40;58.90;;;;;;5009831;28;21091;-50
2021/01/11 11:18:17;;;;;;;13.03;11.33;;;6.10;59.50;;;;;;5017237;28;20671;-51
2021/01/11 11:20:46;;;;;;;15.63;13.10;;;6.00;59.90;;;;;;5018678;28;20745;-48
2021/01/11 11:23:13;;;;;;;13.97;12.53;;;6.20;61.50;;;;;;5016795;28;20695;-50
2021/01/11 11:25:43;;;;;;;13.87;12.33;;;6.60;60.20;;;;;;5014300;28;20685;-49
2021/01/11 11:28:09;;;;;;;14.70;12.40;;;7.10;58.40;;;;;;5017929;28;20702;-48
2021/01/11 11:30:36;;;;;;;10.57;9.57;;;7.20;56.80;;;;;;5018289;28;20675;-51
2021/01/11 11:33:03;;;;;;;13.63;11.77;;;7.40;56.20;;;;;;5019316;28;20708;-49
2021/01/11 11:35:30;;;;;;;13.30;11.03;;;7.20;56.30;;;;;;5007638;28;20698;-50
2021/01/11 11:37:57;;;;;;;15.07;13.47;;;6.90;56.70;;;;;;5022066;28;20660;-50
2021/01/11 11:40:24;;;;;;;13.27;11.60;;;6.70;58.00;;;;;;5015357;28;21044;-50
2021/01/11 11:42:51;;;;;;;13.90;10.90;;;6.70;58.60;;;;;;5011641;28;20706;-50
2021/01/11 11:45:18;;;;;;;14.20;12.30;;;6.80;58.20;;;;;;5010903;28;20633;-51
2021/01/11 11:47:46;;;;;;;15.50;12.93;;;7.10;58.90;;;;;;4997325;28;20638;-50
2021/01/11 11:50:13;;;;;;;17.60;13.97;;;7.30;58.20;;;;;;5017381;28;20956;-49
2021/01/11 11:52:40;;;;;;;13.53;11.83;;;7.70;57.80;;;;;;5012785;28;20695;-50
2021/01/11 11:55:08;;;;;;;13.87;12.47;;;8.00;56.40;;;;;;5016371;28;20677;-49
2021/01/11 11:57:36;;;;;;;17.70;14.10;;;8.30;56.00;;;;;;5022654;28;20736;-50
2021/01/11 12:00:04;;;;;;;13.97;12.53;;;8.50;55.60;;;;;;5022844;28;20658;-48
2021/01/11 12:02:31;;;;;;;13.83;11.87;;;8.30;53.90;;;;;;5012416;28;21297;-49
2021/01/11 12:04:58;;;;;;;15.03;13.57;;;8.30;53.40;;;;;;5023211;28;20677;-49
2021/01/11 12:07:27;;;;;;;14.80;13.40;;;8.30;53.00;;;;;;5015929;28;21187;-49
2021/01/11 12:09:54;;;;;;;16.77;14.77;;;8.20;53.00;;;;;;5011780;28;20667;-49
2021/01/11 12:12:21;;;;;;;12.90;9.90;;;8.00;53.20;;;;;;5023289;28;20690;-49
2021/01/11 12:14:48;;;;;;;16.53;13.90;;;8.10;53.00;;;;;;5019208;28;20634;-50
2021/01/11 12:17:15;;;;;;;14.10;12.43;;;7.90;52.70;;;;;;5019380;28;20740;-50
2021/01/11 12:19:42;;;;;;;15.50;13.90;;;7.60;53.70;;;;;;5022665;28;20675;-50
2021/01/11 12:22:11;;;;;;;15.27;12.40;;;7.50;54.60;;;;;;5019908;28;20665;-50
2021/01/11 12:24:38;;;;;;;14.33;12.30;;;7.80;54.40;;;;;;5014688;28;20689;-51
2021/01/11 12:27:05;;;;;;;14.80;10.80;;;7.80;54.10;;;;;;5017910;28;20647;-50
2021/01/11 12:29:32;;;;;;;13.33;11.33;;;7.70;54.80;;;;;;5013565;28;21201;-48
2021/01/11 12:32:03;;;;;;;17.50;13.87;;;7.20;55.00;;;;;;5023237;28;20621;-50
2021/01/11 12:34:33;;;;;;;11.10;9.60;;;7.10;55.40;;;;;;5018034;28;20696;-51
2021/01/11 12:37:00;;;;;;;17.90;16.10;;;7.20;55.20;;;;;;5015837;28;20699;-50
2021/01/11 12:39:27;;;;;;;8.93;7.80;;;7.70;54.90;;;;;;5011936;28;20671;-49
2021/01/11 12:41:54;;;;;;;11.50;10.30;;;8.10;53.90;;;;;;5018484;28;20674;-49
2021/01/11 12:44:21;;;;;;;15.40;12.13;;;8.30;52.20;;;;;;5021239;28;21180;-51